createdAt,value
2022-12-05T00:00:27.112Z,37.13
2022-12-05T00:02:53.303Z,35.40
2022-12-05T00:05:19.502Z,42.40
2022-12-05T00:07:45.812Z,37.63
2022-12-05T00:10:12.111Z,40.40
2022-12-05T00:12:38.456Z,40.72
2022-12-05T00:15:05.101Z,42.20
2022-12-05T00:17:31.715Z,41.15
2022-12-05T00:19:58.573Z,40.40
2022-12-05T00:22:25.027Z,39.90
2022-12-05T00:24:51.269Z,40.67
2022-12-05T00:27:17.533Z,41.55
2022-12-05T00:29:43.802Z,38.83
2022-12-05T00:32:10.098Z,43.70
2022-12-05T00:34:36.416Z,42.30
2022-12-05T00:37:02.615Z,40.22
2022-12-05T00:39:28.876Z,42.67
2022-12-05T00:41:55.097Z,39.97
2022-12-05T00:44:21.397Z,41.47
2022-12-05T00:46:47.625Z,42.90
2022-12-05T00:49:13.905Z,42.05
2022-12-05T00:51:41.248Z,42.72
2022-12-05T00:54:08.668Z,39.35
2022-12-05T00:56:35.493Z,42.50
2022-12-05T00:59:02.553Z,38.58
2022-12-05T01:01:36.539Z,35.50
2022-12-05T01:04:07.713Z,39.58
2022-12-05T01:06:34.312Z,41.47
2022-12-05T01:09:00.798Z,40.20
2022-12-05T01:11:27.333Z,36.95
2022-12-05T01:13:53.899Z,36.63
2022-12-05T01:16:22.745Z,39.70
2022-12-05T01:18:49.263Z,45.33
2022-12-05T01:21:15.550Z,40.28
2022-12-05T01:23:41.762Z,39.78
2022-12-05T01:26:09.239Z,37.28
2022-12-05T01:28:35.987Z,41.33
2022-12-05T01:31:28.625Z,35.30
2022-12-05T01:33:55.663Z,35.70
2022-12-05T01:36:22.350Z,35.78
2022-12-05T01:38:48.739Z,37.55
2022-12-05T01:41:16.634Z,35.53
2022-12-05T01:43:53.052Z,35.17
2022-12-05T01:46:19.360Z,36.47
2022-12-05T01:48:45.692Z,38.42
2022-12-05T01:51:12.206Z,36.85
2022-12-05T01:53:38.478Z,37.78
2022-12-05T01:56:04.834Z,33.00
2022-12-05T01:58:33.056Z,32.55
2022-12-05T02:00:59.337Z,37.78
2022-12-05T02:03:25.593Z,38.30
2022-12-05T02:05:53.332Z,37.35
2022-12-05T02:08:19.782Z,36.35
2022-12-05T02:11:08.923Z,36.38
2022-12-05T02:13:44.389Z,37.78
2022-12-05T02:16:18.916Z,35.95
2022-12-05T02:18:56.495Z,36.47
2022-12-05T02:21:31.692Z,37.72
2022-12-05T02:24:21.817Z,32.67
2022-12-05T02:26:53.439Z,36.42
2022-12-05T02:29:28.478Z,37.10
2022-12-05T02:32:00.938Z,35.60
2022-12-05T02:34:52.984Z,38.55
2022-12-05T02:37:27.618Z,36.45
2022-12-05T02:40:05.467Z,32.15
2022-12-05T02:42:35.233Z,37.88
2022-12-05T02:45:21.270Z,37.60
2022-12-05T02:47:49.170Z,37.65
2022-12-05T02:50:18.587Z,36.13
2022-12-05T02:52:47.422Z,34.63
2022-12-05T02:55:14.663Z,35.47
2022-12-05T02:57:44.430Z,38.42
2022-12-05T03:00:10.908Z,39.30
2022-12-05T03:02:39.255Z,37.47
2022-12-05T03:05:32.832Z,36.72
2022-12-05T03:08:00.206Z,39.33
2022-12-05T03:10:28.651Z,36.78
2022-12-05T03:12:56.590Z,33.45
2022-12-05T03:15:25.563Z,35.97
2022-12-05T03:17:53.704Z,32.42
2022-12-05T03:20:30.836Z,36.42
2022-12-05T03:23:03.109Z,33.33
2022-12-05T03:25:40.324Z,34.80
2022-12-05T03:28:09.374Z,34.55
2022-12-05T03:30:37.972Z,32.15
2022-12-05T03:33:10.511Z,35.35
2022-12-05T03:35:56.867Z,36.08
2022-12-05T03:38:23.069Z,34.63
2022-12-05T03:40:54.368Z,31.38
2022-12-05T03:43:39.226Z,32.22
2022-12-05T03:46:07.952Z,32.63
2022-12-05T03:48:52.192Z,33.90
2022-12-05T03:51:18.991Z,30.60
2022-12-05T03:53:48.838Z,31.15
2022-12-05T03:56:17.940Z,31.45
2022-12-05T03:58:48.424Z,29.13
2022-12-05T04:01:16.423Z,30.13
2022-12-05T04:03:50.877Z,32.17
2022-12-05T04:06:29.011Z,30.45
2022-12-05T04:09:00.333Z,29.45
2022-12-05T04:11:29.744Z,33.40
2022-12-05T04:13:59.315Z,29.58
2022-12-05T04:16:49.063Z,32.08
2022-12-05T04:19:18.625Z,32.53
2022-12-05T04:21:47.174Z,28.83
2022-12-05T04:24:54.542Z,29.75
2022-12-05T04:27:27.966Z,28.88
2022-12-05T04:29:54.154Z,29.42
2022-12-05T04:32:23.195Z,31.70
2022-12-05T04:34:53.273Z,31.50
2022-12-05T04:37:23.394Z,30.73
2022-12-05T04:40:01.464Z,25.85
2022-12-05T04:42:28.847Z,26.25
2022-12-05T04:44:57.275Z,27.00
2022-12-05T04:47:25.793Z,28.92
2022-12-05T04:49:53.929Z,30.15
2022-12-05T04:52:20.935Z,31.80
2022-12-05T04:54:49.365Z,30.50
2022-12-05T04:57:30.886Z,29.02
2022-12-05T05:02:27.779Z,26.25
2022-12-05T05:04:55.056Z,29.80
2022-12-05T05:07:21.990Z,27.23
2022-12-05T05:09:48.309Z,30.30
2022-12-05T05:12:18.996Z,30.83
2022-12-05T05:14:45.536Z,31.27
2022-12-05T05:17:11.728Z,29.95
2022-12-05T05:19:37.961Z,30.55
2022-12-05T05:22:04.198Z,27.77
2022-12-05T05:24:30.388Z,29.98
2022-12-05T05:26:57.603Z,29.70
2022-12-05T05:29:24.077Z,34.63
2022-12-05T05:31:50.266Z,36.30
2022-12-05T05:34:16.640Z,30.15
2022-12-05T05:36:43.818Z,29.00
2022-12-05T05:39:12.360Z,29.70
2022-12-05T05:41:38.565Z,30.80
2022-12-05T05:44:05.302Z,30.33
2022-12-05T05:46:33.497Z,34.50
2022-12-05T05:49:00.048Z,31.77
2022-12-05T05:51:29.027Z,32.08
2022-12-05T05:53:55.909Z,33.85
2022-12-05T05:56:22.407Z,31.08
2022-12-05T05:58:48.949Z,29.55
2022-12-05T06:01:20.235Z,30.42
2022-12-05T06:03:46.644Z,29.80
2022-12-05T06:06:13.687Z,34.33
2022-12-05T06:08:41.173Z,31.70
2022-12-05T06:11:08.369Z,28.25
2022-12-05T06:13:34.739Z,32.35
2022-12-05T06:16:01.229Z,33.08
2022-12-05T06:18:27.908Z,31.98
2022-12-05T06:20:54.918Z,32.20
2022-12-05T06:23:21.374Z,30.05
2022-12-05T06:25:48.722Z,31.27
2022-12-05T06:28:15.197Z,30.55
2022-12-05T06:30:41.508Z,33.42
2022-12-05T06:33:08.154Z,33.10
2022-12-05T06:35:34.369Z,30.60
2022-12-05T06:38:00.569Z,32.33
2022-12-05T06:40:26.797Z,33.08
2022-12-05T06:42:53.068Z,34.05
2022-12-05T06:45:19.290Z,30.80
2022-12-05T06:47:45.523Z,28.42
2022-12-05T06:50:12.678Z,33.53
2022-12-05T06:52:38.884Z,34.88
2022-12-05T06:55:05.386Z,34.17
2022-12-05T06:57:31.661Z,31.13
2022-12-05T07:00:16.847Z,32.80
2022-12-05T07:02:43.279Z,32.30
2022-12-05T07:05:10.211Z,34.67
2022-12-05T07:07:36.441Z,33.22
2022-12-05T07:10:03.219Z,34.88
2022-12-05T07:12:29.428Z,30.10
2022-12-05T07:14:55.640Z,30.20
2022-12-05T07:17:21.979Z,31.17
2022-12-05T07:19:49.439Z,30.75
2022-12-05T07:22:16.516Z,34.05
2022-12-05T07:24:43.144Z,30.80
2022-12-05T07:27:09.338Z,32.38
2022-12-05T07:29:35.618Z,32.28
2022-12-05T07:32:02.302Z,32.85
2022-12-05T07:34:28.690Z,37.28
2022-12-05T07:36:54.895Z,34.85
2022-12-05T07:39:21.154Z,31.02
2022-12-05T07:41:47.345Z,35.42
2022-12-05T07:44:13.631Z,29.02
2022-12-05T07:46:39.949Z,32.67
2022-12-05T07:49:07.135Z,32.53
2022-12-05T07:51:33.578Z,31.17
2022-12-05T07:53:59.909Z,33.20
2022-12-05T07:56:26.115Z,30.15
2022-12-05T07:58:52.665Z,31.90
2022-12-05T08:01:20.036Z,35.67
2022-12-05T08:03:46.598Z,33.55
2022-12-05T08:06:17.064Z,32.92
2022-12-05T08:08:43.644Z,30.07
2022-12-05T08:11:12.168Z,30.95
2022-12-05T08:13:38.469Z,29.55
2022-12-05T08:16:05.797Z,30.33
2022-12-05T08:18:31.990Z,30.33
2022-12-05T08:21:02.083Z,32.17
2022-12-05T08:23:29.054Z,32.40
2022-12-05T08:25:55.245Z,31.15
2022-12-05T08:28:21.442Z,32.05
2022-12-05T08:30:47.714Z,32.10
2022-12-05T08:33:13.963Z,30.75
2022-12-05T08:35:40.164Z,32.47
2022-12-05T08:38:06.358Z,28.23
2022-12-05T08:40:32.565Z,32.42
2022-12-05T08:42:58.760Z,26.42
2022-12-05T08:45:24.955Z,29.25
2022-12-05T08:47:51.151Z,28.13
2022-12-05T08:50:17.418Z,24.27
2022-12-05T08:52:43.610Z,27.15
2022-12-05T08:55:10.146Z,28.98
2022-12-05T08:57:36.373Z,28.83
2022-12-05T09:00:05.842Z,30.92
2022-12-05T09:02:32.134Z,30.48
2022-12-05T09:05:09.055Z,30.23
2022-12-05T09:07:44.649Z,27.15
2022-12-05T09:10:10.949Z,28.40
2022-12-05T09:12:37.890Z,27.23
2022-12-05T09:15:07.548Z,28.70
2022-12-05T09:17:34.193Z,27.23
2022-12-05T09:20:00.397Z,31.08
2022-12-05T09:22:26.786Z,25.35
2022-12-05T09:24:52.999Z,30.95
2022-12-05T09:27:19.197Z,29.83
2022-12-05T09:29:45.409Z,29.23
2022-12-05T09:32:12.299Z,32.00
2022-12-05T09:34:38.526Z,31.02
2022-12-05T09:37:23.183Z,31.33
2022-12-05T09:39:51.613Z,30.52
2022-12-05T09:42:41.108Z,26.17
2022-12-05T09:45:17.521Z,31.08
2022-12-05T09:47:52.945Z,28.15
2022-12-05T09:50:23.378Z,29.48
2022-12-05T09:52:58.605Z,30.80
2022-12-05T09:55:25.427Z,29.40
2022-12-05T09:57:52.823Z,28.05
2022-12-05T10:00:19.334Z,29.95
2022-12-05T10:02:50.369Z,28.95
2022-12-05T10:05:24.466Z,32.60
2022-12-05T10:08:02.960Z,29.20
2022-12-05T10:10:48.838Z,30.00
2022-12-05T10:13:20.947Z,30.58
2022-12-05T10:15:53.005Z,29.85
2022-12-05T10:18:38.787Z,30.55
2022-12-05T10:21:10.172Z,32.08
2022-12-05T10:26:25.038Z,23.23
2022-12-05T10:28:51.230Z,25.83
2022-12-05T10:31:19.457Z,24.35
2022-12-05T10:33:50.453Z,25.08
2022-12-05T10:36:17.042Z,24.63
2022-12-05T10:38:44.364Z,24.50
2022-12-05T10:41:12.513Z,22.05
2022-12-05T10:43:43.333Z,25.58
2022-12-05T10:46:14.143Z,26.48
2022-12-05T10:48:43.178Z,25.35
2022-12-05T10:51:17.399Z,22.38
2022-12-05T10:53:45.391Z,22.35
2022-12-05T10:56:31.028Z,23.80
2022-12-05T10:58:57.752Z,23.15
2022-12-05T11:01:25.936Z,25.33
2022-12-05T11:04:00.335Z,22.95
2022-12-05T11:06:31.338Z,23.95
2022-12-05T11:09:06.472Z,24.52
2022-12-05T11:11:33.642Z,26.70
2022-12-05T11:14:01.234Z,28.50
2022-12-05T11:16:32.888Z,24.42
2022-12-05T11:19:38.116Z,25.50
2022-12-05T11:22:05.033Z,26.50
2022-12-05T11:24:32.656Z,29.90
2022-12-05T11:27:00.851Z,27.50
2022-12-05T11:29:28.604Z,29.50
2022-12-05T11:31:54.805Z,29.15
2022-12-05T11:34:27.082Z,37.10
2022-12-05T11:36:55.963Z,28.15
2022-12-05T11:39:22.286Z,30.27
2022-12-05T11:41:54.514Z,29.00
2022-12-05T11:44:39.074Z,31.83
2022-12-05T11:47:05.273Z,32.28
2022-12-05T11:49:40.235Z,31.65
2022-12-05T11:52:24.976Z,28.80
2022-12-05T11:55:06.765Z,30.80
2022-12-05T11:57:52.689Z,35.88
2022-12-05T12:00:48.423Z,30.25
2022-12-05T12:03:27.279Z,34.50
2022-12-05T12:08:24.391Z,29.80
2022-12-05T12:11:09.650Z,27.15
2022-12-05T12:13:54.131Z,27.40
2022-12-05T12:16:43.062Z,27.02
2022-12-05T12:19:09.355Z,27.13
2022-12-05T12:21:38.843Z,30.52
2022-12-05T12:24:27.353Z,31.67
2022-12-05T12:27:14.713Z,25.58
2022-12-05T12:29:43.887Z,34.75
2022-12-05T12:32:10.177Z,28.63
2022-12-05T12:34:49.440Z,28.13
2022-12-05T12:37:35.077Z,29.67
2022-12-05T12:40:13.052Z,25.58
2022-12-05T12:42:52.250Z,35.22
2022-12-05T12:45:33.683Z,36.53
2022-12-05T12:48:15.961Z,53.95
2022-12-05T12:50:44.268Z,31.42
2022-12-05T12:53:29.534Z,28.48
2022-12-05T12:56:11.190Z,25.50
2022-12-05T12:58:56.487Z,24.15
2022-12-05T13:01:35.648Z,25.38
2022-12-05T13:04:12.278Z,23.02
2022-12-05T13:06:43.983Z,23.95
2022-12-05T13:09:24.878Z,23.98
2022-12-05T13:11:51.815Z,25.98
2022-12-05T13:14:19.617Z,30.10
2022-12-05T13:16:50.074Z,25.38
2022-12-05T13:19:40.679Z,31.07
2022-12-05T13:22:07.477Z,26.83
2022-12-05T13:24:33.864Z,28.15
2022-12-05T13:27:01.410Z,28.55
2022-12-05T13:29:40.356Z,25.17
2022-12-05T13:32:08.546Z,28.50
2022-12-05T13:34:45.600Z,26.35
2022-12-05T13:37:36.020Z,27.60
2022-12-05T13:40:21.278Z,29.80
2022-12-05T13:42:48.203Z,30.35
2022-12-05T13:45:17.412Z,27.10
2022-12-05T13:47:56.014Z,30.15
2022-12-05T13:50:28.745Z,29.30
2022-12-05T13:52:56.370Z,29.92
2022-12-05T13:55:29.525Z,31.63
2022-12-05T13:58:00.446Z,28.10
2022-12-05T14:00:27.652Z,28.33
2022-12-05T14:02:54.852Z,32.10
2022-12-05T14:05:21.145Z,28.40
2022-12-05T14:07:48.215Z,30.65
2022-12-05T14:10:18.535Z,30.85
2022-12-05T14:12:49.887Z,29.35
2022-12-05T14:15:29.810Z,31.58
2022-12-05T14:18:09.745Z,31.75
2022-12-05T14:20:45.314Z,29.13
2022-12-05T14:23:11.529Z,31.55
2022-12-05T14:25:58.096Z,28.20
2022-12-05T14:28:46.596Z,28.63
2022-12-05T14:31:31.455Z,30.30
2022-12-05T14:34:17.812Z,30.65
2022-12-05T14:36:57.837Z,27.73
2022-12-05T14:39:56.984Z,26.75
2022-12-05T14:42:35.442Z,27.65
2022-12-05T14:45:02.991Z,26.88
2022-12-05T14:47:32.474Z,29.58
2022-12-05T14:50:02.627Z,26.08
2022-12-05T14:52:30.791Z,26.73
2022-12-05T14:55:02.050Z,28.25
2022-12-05T14:57:29.071Z,29.30
2022-12-05T15:00:06.513Z,26.88
2022-12-05T15:02:36.630Z,28.02
2022-12-05T15:05:05.912Z,27.90
2022-12-05T15:07:35.132Z,25.33
2022-12-05T15:10:07.239Z,27.70
2022-12-05T15:12:47.752Z,27.50
2022-12-05T15:15:34.313Z,25.60
2022-12-05T15:18:04.835Z,24.80
2022-12-05T15:20:40.441Z,25.80
2022-12-05T15:23:25.673Z,23.42
2022-12-05T15:25:57.088Z,24.42
2022-12-05T15:28:24.271Z,21.40
2022-12-05T15:30:56.757Z,23.45
2022-12-05T15:33:24.141Z,20.35
2022-12-05T15:35:51.824Z,22.55
2022-12-05T15:38:27.490Z,21.23
2022-12-05T15:40:54.043Z,21.70
2022-12-05T15:43:28.351Z,22.10
2022-12-05T15:46:06.736Z,23.67
2022-12-05T15:48:33.015Z,23.10
2022-12-05T15:50:59.339Z,21.50
2022-12-05T15:53:34.253Z,24.35
2022-12-05T15:56:13.532Z,22.38
2022-12-05T15:58:43.271Z,22.92
2022-12-05T16:01:15.501Z,24.73
2022-12-05T16:03:45.916Z,19.40
2022-12-05T16:06:22.079Z,21.50
2022-12-05T16:08:48.857Z,21.70
2022-12-05T16:11:15.476Z,22.27
2022-12-05T16:13:43.313Z,22.10
2022-12-05T16:16:14.084Z,21.40
2022-12-05T16:18:40.374Z,22.45
2022-12-05T16:21:27.696Z,24.00
2022-12-05T16:23:59.876Z,22.98
2022-12-05T16:26:26.271Z,21.45
2022-12-05T16:29:02.091Z,24.40
2022-12-05T16:31:29.331Z,22.08
2022-12-05T16:34:15.950Z,25.08
2022-12-05T16:36:49.404Z,23.83
2022-12-05T16:39:19.362Z,22.20
2022-12-05T16:41:46.344Z,17.57
2022-12-05T16:44:28.261Z,20.30
2022-12-05T16:46:55.299Z,19.42
2022-12-05T16:49:30.846Z,20.30
2022-12-05T16:52:12.246Z,21.10
2022-12-05T16:54:38.492Z,18.73
2022-12-05T16:57:04.972Z,18.63
2022-12-05T16:59:35.491Z,22.65
2022-12-05T17:02:02.745Z,22.97
2022-12-05T17:04:29.265Z,20.60
2022-12-05T17:06:55.551Z,21.83
2022-12-05T17:09:21.784Z,21.60
2022-12-05T17:11:49.259Z,20.05
2022-12-05T17:14:17.161Z,20.30
2022-12-05T17:16:43.698Z,18.27
2022-12-05T17:19:10.823Z,17.33
2022-12-05T17:21:37.918Z,17.75
2022-12-05T17:24:04.224Z,20.83
2022-12-05T17:26:30.790Z,19.35
2022-12-05T17:28:57.117Z,17.63
2022-12-05T17:31:24.589Z,18.98
2022-12-05T17:33:52.117Z,17.13
2022-12-05T17:36:20.916Z,18.20
2022-12-05T17:38:47.122Z,19.10
2022-12-05T17:41:18.208Z,18.70
2022-12-05T17:43:45.822Z,22.35
2022-12-05T17:46:16.498Z,20.20
2022-12-05T17:48:43.081Z,19.33
2022-12-05T17:51:11.277Z,17.40
2022-12-05T17:53:38.598Z,20.48
2022-12-05T17:56:05.218Z,19.85
2022-12-05T17:58:31.492Z,20.15
2022-12-05T18:00:58.368Z,21.70
2022-12-05T18:03:24.649Z,20.17
2022-12-05T18:05:50.904Z,22.42
2022-12-05T18:08:17.609Z,21.58
2022-12-05T18:10:44.725Z,21.45
2022-12-05T18:13:11.113Z,20.58
2022-12-05T18:15:42.469Z,23.85
2022-12-05T18:18:13.305Z,22.15
2022-12-05T18:20:39.647Z,24.65
2022-12-05T18:23:05.885Z,23.52
2022-12-05T18:25:32.100Z,22.30
2022-12-05T18:27:58.602Z,19.77
2022-12-05T18:30:24.871Z,20.52
2022-12-05T18:32:51.104Z,21.55
2022-12-05T18:35:17.406Z,22.45
2022-12-05T18:37:43.705Z,23.38
2022-12-05T18:40:10.317Z,20.30
2022-12-05T18:42:36.643Z,19.58
2022-12-05T18:45:03.827Z,21.17
2022-12-05T18:47:30.050Z,20.58
2022-12-05T18:49:56.366Z,19.58
2022-12-05T18:52:22.643Z,20.10
2022-12-05T18:55:03.052Z,18.17
2022-12-05T18:57:36.207Z,20.67
2022-12-05T19:00:03.765Z,18.83
2022-12-05T19:02:29.998Z,17.90
2022-12-05T19:04:56.504Z,19.95
2022-12-05T19:07:22.849Z,18.92
2022-12-05T19:09:49.111Z,18.67
2022-12-05T19:12:15.614Z,17.30
2022-12-05T19:14:41.920Z,20.20
2022-12-05T19:17:08.253Z,20.60
2022-12-05T19:19:34.443Z,18.20
2022-12-05T19:22:02.007Z,16.85
2022-12-05T19:24:28.263Z,16.85
2022-12-05T19:26:54.683Z,15.57
2022-12-05T19:29:20.900Z,17.30
2022-12-05T19:31:47.313Z,17.05
2022-12-05T19:34:13.636Z,17.35
2022-12-05T19:36:41.196Z,16.50
2022-12-05T19:39:09.540Z,14.45
2022-12-05T19:41:36.183Z,14.55
2022-12-05T19:44:02.803Z,15.40
2022-12-05T19:46:29.951Z,16.33
2022-12-05T19:48:57.178Z,15.60
2022-12-05T19:51:23.750Z,15.75
2022-12-05T19:53:50.163Z,16.35
2022-12-05T19:56:18.390Z,15.73
2022-12-05T19:58:45.070Z,16.13
2022-12-05T20:01:13.184Z,18.23
2022-12-05T20:03:39.645Z,17.10
2022-12-05T20:06:06.622Z,15.68
2022-12-05T20:08:34.339Z,16.88
2022-12-05T20:11:04.599Z,15.82
2022-12-05T20:13:47.721Z,16.20
2022-12-05T20:16:15.354Z,16.20
2022-12-05T20:18:41.606Z,17.30
2022-12-05T20:21:09.187Z,16.98
2022-12-05T20:23:35.836Z,17.58
2022-12-05T20:26:06.432Z,17.77
2022-12-05T20:28:33.053Z,19.02
2022-12-05T20:31:03.314Z,19.33
2022-12-05T20:33:29.632Z,18.38
2022-12-05T20:35:55.892Z,18.63
2022-12-05T20:38:22.103Z,16.83
2022-12-05T20:40:48.323Z,18.77
2022-12-05T20:43:14.879Z,18.48
2022-12-05T20:45:41.193Z,19.02
2022-12-05T20:48:08.107Z,21.63
2022-12-05T20:50:34.343Z,19.13
2022-12-05T20:53:00.752Z,19.27
2022-12-05T20:55:26.972Z,17.92
2022-12-05T20:57:53.190Z,24.05
2022-12-05T21:00:21.278Z,21.60
2022-12-05T21:02:47.598Z,23.00
2022-12-05T21:05:13.899Z,22.92
2022-12-05T21:07:40.181Z,24.60
2022-12-05T21:10:08.507Z,24.65
2022-12-05T21:12:35.012Z,22.48
2022-12-05T21:15:01.181Z,25.70
2022-12-05T21:17:27.809Z,24.27
2022-12-05T21:19:54.008Z,25.40
2022-12-05T21:22:20.284Z,23.88
2022-12-05T21:24:46.518Z,28.30
2022-12-05T21:27:12.850Z,25.63
2022-12-05T21:29:39.040Z,25.33
2022-12-05T21:32:05.280Z,25.58
2022-12-05T21:34:31.499Z,29.65
2022-12-05T21:36:59.076Z,23.25
2022-12-05T21:39:25.345Z,24.13
2022-12-05T21:41:51.670Z,26.30
2022-12-05T21:44:19.811Z,25.65
2022-12-05T21:46:46.119Z,23.90
2022-12-05T21:49:12.391Z,25.33
2022-12-05T21:51:38.594Z,24.45
2022-12-05T21:54:04.822Z,23.30
2022-12-05T21:56:31.181Z,22.42
2022-12-05T21:58:57.456Z,25.00
2022-12-05T22:01:24.977Z,24.48
2022-12-05T22:03:52.408Z,24.80
2022-12-05T22:06:18.852Z,26.10
2022-12-05T22:08:45.089Z,23.92
2022-12-05T22:11:12.800Z,25.58
2022-12-05T22:13:39.555Z,25.35
2022-12-05T22:16:06.628Z,22.77
2022-12-05T22:18:34.372Z,24.67
2022-12-05T22:21:02.360Z,24.63
2022-12-05T22:23:28.661Z,22.50
2022-12-05T22:26:05.805Z,25.30
2022-12-05T22:28:32.353Z,23.85
2022-12-05T22:31:00.501Z,26.15
2022-12-05T22:33:27.340Z,25.20
2022-12-05T22:35:55.166Z,25.92
2022-12-05T22:38:21.404Z,24.92
2022-12-05T22:40:52.590Z,27.00
2022-12-05T22:43:18.862Z,26.15
2022-12-05T22:45:45.044Z,28.23
2022-12-05T22:48:11.283Z,22.33
2022-12-05T22:50:37.470Z,22.48
2022-12-05T22:53:03.822Z,23.70
2022-12-05T22:55:31.261Z,22.15
2022-12-05T22:57:57.456Z,21.90
2022-12-05T23:00:23.887Z,21.35
2022-12-05T23:02:50.176Z,20.85
2022-12-05T23:05:16.506Z,20.13
2022-12-05T23:07:42.813Z,19.90
2022-12-05T23:10:09.272Z,21.70
2022-12-05T23:12:35.501Z,19.13
2022-12-05T23:15:01.732Z,22.67
2022-12-05T23:17:27.967Z,21.05
2022-12-05T23:19:54.205Z,25.50
2022-12-05T23:22:20.482Z,20.13
2022-12-05T23:24:46.685Z,19.55
2022-12-05T23:27:12.918Z,19.98
2022-12-05T23:29:39.405Z,19.35
2022-12-05T23:32:05.665Z,18.15
2022-12-05T23:34:31.963Z,17.42
2022-12-05T23:36:58.377Z,16.17
2022-12-05T23:39:24.812Z,21.38
2022-12-05T23:41:51.694Z,15.25
2022-12-05T23:44:18.140Z,17.20
2022-12-05T23:46:44.631Z,15.25
2022-12-05T23:49:11.077Z,16.65
2022-12-05T23:51:40.312Z,17.85
2022-12-05T23:54:09.274Z,16.13
2022-12-05T23:56:35.900Z,17.48
2022-12-05T23:59:03.075Z,16.35
